createdAt,value
2018-02-14T00:00:04.839Z,-1.1
2018-02-14T00:05:02.838Z,-0.8
2018-02-14T00:10:03.364Z,-1.1
2018-02-14T00:15:02.840Z,-1.2
2018-02-14T00:20:03.367Z,-1.2
2018-02-14T00:25:02.855Z,-1.5
2018-02-14T00:30:03.318Z,-1.7
2018-02-14T00:35:02.933Z,-1.5
2018-02-14T00:40:02.427Z,-1.7
2018-02-14T00:45:02.953Z,-1.8
2018-02-14T00:50:02.560Z,-1.8
2018-02-14T00:55:03.098Z,-1.8
2018-02-14T01:00:02.590Z,-1.8
2018-02-14T01:05:02.840Z,-1.7
2018-02-14T01:10:03.367Z,-2.0
2018-02-14T01:15:02.846Z,-2.0
2018-02-14T01:20:02.553Z,-2.0
2018-02-14T01:25:03.007Z,-2.0
2018-02-14T01:30:02.424Z,-2.5
2018-02-14T01:35:02.970Z,-2.5
2018-02-14T01:40:02.475Z,-2.5
2018-02-14T01:45:02.977Z,-2.5
2018-02-14T01:50:02.480Z,-2.5
2018-02-14T01:55:02.934Z,-2.7
2018-02-14T02:00:02.429Z,-2.7
2018-02-14T02:05:02.884Z,-2.7
2018-02-14T02:10:02.480Z,-2.7
2018-02-14T02:15:03.483Z,-2.7
2018-02-14T02:20:02.961Z,-2.7
2018-02-14T02:25:02.489Z,-2.7
2018-02-14T02:30:02.945Z,-2.5
2018-02-14T02:35:02.491Z,-2.7
2018-02-14T02:40:03.090Z,-2.5
2018-02-14T02:45:02.685Z,-2.7
2018-02-14T02:50:03.160Z,-2.5
2018-02-14T02:55:02.719Z,-2.7
2018-02-14T03:00:03.247Z,-2.5
2018-02-14T03:05:02.775Z,-2.7
2018-02-14T03:10:02.366Z,-2.7
2018-02-14T03:15:02.822Z,-2.7
2018-02-14T03:20:03.294Z,-2.5
2018-02-14T03:25:02.725Z,-2.7
2018-02-14T03:30:03.193Z,-2.5
2018-02-14T03:35:02.644Z,-2.7
2018-02-14T03:40:03.196Z,-2.7
2018-02-14T03:45:02.686Z,-2.7
2018-02-14T03:50:03.153Z,-2.9
2018-02-14T03:55:02.629Z,-2.9
2018-02-14T04:00:03.226Z,-2.9
2018-02-14T04:05:02.744Z,-2.7
2018-02-14T04:10:03.277Z,-3.0
2018-02-14T04:15:02.717Z,-3.0
2018-02-14T04:20:03.420Z,-3.0
2018-02-14T04:25:02.897Z,-3.2
2018-02-14T04:30:02.418Z,-3.2
2018-02-14T04:35:02.920Z,-3.2
2018-02-14T04:40:02.389Z,-3.2
2018-02-14T04:45:02.787Z,-3.2
2018-02-14T04:50:03.308Z,-3.0
2018-02-14T04:55:02.787Z,-3.0
2018-02-14T05:00:03.294Z,-3.0
2018-02-14T05:05:02.790Z,-3.2
2018-02-14T05:10:03.396Z,-3.0
2018-02-14T05:15:02.845Z,-3.2
2018-02-14T05:20:02.388Z,-3.0
2018-02-14T05:25:02.977Z,-3.2
2018-02-14T05:30:02.474Z,-3.0
2018-02-14T05:35:02.940Z,-3.0
2018-02-14T05:40:02.449Z,-3.0
2018-02-14T05:45:02.920Z,-3.2
2018-02-14T05:50:02.391Z,-3.0
2018-02-14T05:55:02.959Z,-3.2
2018-02-14T06:00:02.501Z,-3.2
2018-02-14T06:05:03.001Z,-3.2
2018-02-14T06:10:02.545Z,-3.2
2018-02-14T06:15:03.018Z,-3.2
2018-02-14T06:20:02.466Z,-3.2
2018-02-14T06:25:03.124Z,-3.2
2018-02-14T06:30:02.613Z,-3.0
2018-02-14T06:35:03.137Z,-2.9
2018-02-14T06:40:02.635Z,-3.0
2018-02-14T06:45:03.078Z,-3.0
2018-02-14T06:50:02.649Z,-3.0
2018-02-14T06:55:03.158Z,-2.9
2018-02-14T07:00:02.611Z,-3.0
2018-02-14T07:05:03.058Z,-3.0
2018-02-14T07:10:02.548Z,-3.2
2018-02-14T07:15:03.043Z,-3.2
2018-02-14T07:20:02.538Z,-2.9
2018-02-14T07:25:03.010Z,-3.0
2018-02-14T07:30:02.428Z,-3.0
2018-02-14T07:35:02.921Z,-2.9
2018-02-14T07:40:02.450Z,-2.9
2018-02-14T07:45:03.000Z,-2.9
2018-02-14T07:50:02.514Z,-2.7
2018-02-14T07:55:02.983Z,-2.5
2018-02-14T08:00:02.445Z,-2.0
2018-02-14T08:05:02.941Z,-1.8
2018-02-14T08:10:02.532Z,-1.5
2018-02-14T08:15:03.066Z,-1.5
2018-02-14T08:20:02.599Z,-1.2
2018-02-14T08:25:03.132Z,-1.2
2018-02-14T08:30:02.607Z,-0.8
2018-02-14T08:35:03.047Z,-0.5
2018-02-14T08:40:02.915Z,-0.3
2018-02-14T08:45:02.481Z,0.0
2018-02-14T08:50:02.929Z,0.3
2018-02-14T08:55:02.315Z,0.4
2018-02-14T09:00:02.812Z,0.7
2018-02-14T09:05:03.243Z,0.8
2018-02-14T09:10:02.744Z,1.1
2018-02-14T09:15:03.185Z,1.3
2018-02-14T09:20:02.760Z,1.7
2018-02-14T09:25:03.278Z,1.8
2018-02-14T09:30:02.905Z,2.0
2018-02-14T09:35:02.572Z,2.4
2018-02-14T09:40:03.005Z,2.7
2018-02-14T09:45:02.509Z,3.0
2018-02-14T09:50:03.029Z,2.7
2018-02-14T09:55:02.553Z,2.9
2018-02-14T10:00:02.968Z,3.0
2018-02-14T10:05:03.021Z,2.9
2018-02-14T10:10:02.727Z,2.9
2018-02-14T10:15:03.176Z,2.7
2018-02-14T10:20:02.642Z,3.0
2018-02-14T10:25:03.091Z,3.2
2018-02-14T10:30:02.565Z,3.2
2018-02-14T10:35:03.095Z,3.5
2018-02-14T10:40:02.817Z,3.5
2018-02-14T10:45:03.352Z,3.5
2018-02-14T10:50:02.819Z,3.7
2018-02-14T10:55:03.257Z,4.0
2018-02-14T11:00:02.729Z,4.0
2018-02-14T11:05:03.208Z,4.0
2018-02-14T11:10:02.784Z,4.0
2018-02-14T11:15:03.216Z,4.0
2018-02-14T11:20:02.736Z,4.0
2018-02-14T11:25:03.195Z,4.5
2018-02-14T11:30:02.674Z,4.8
2018-02-14T11:35:03.138Z,4.5
2018-02-14T11:40:02.639Z,4.8
2018-02-14T11:45:03.075Z,4.8
2018-02-14T11:50:02.536Z,5.0
2018-02-14T11:55:02.989Z,4.8
2018-02-14T12:00:02.473Z,5.0
2018-02-14T12:05:02.982Z,4.5
2018-02-14T12:10:02.456Z,4.5
2018-02-14T12:15:02.955Z,4.8
2018-02-14T12:20:02.424Z,4.8
2018-02-14T12:25:02.872Z,4.8
2018-02-14T12:30:02.408Z,5.3
2018-02-14T12:35:02.924Z,5.3
2018-02-14T12:40:02.494Z,5.3
2018-02-14T12:45:02.984Z,5.4
2018-02-14T12:50:02.455Z,5.5
2018-02-14T12:55:03.010Z,5.8
2018-02-14T13:00:02.500Z,5.8
2018-02-14T13:05:02.959Z,5.9
2018-02-14T13:10:02.487Z,5.8
2018-02-14T13:15:02.946Z,6.0
2018-02-14T13:20:02.497Z,5.9
2018-02-14T13:25:02.970Z,6.0
2018-02-14T13:30:02.441Z,6.1
2018-02-14T13:35:02.944Z,6.1
2018-02-14T13:40:02.584Z,6.1
2018-02-14T13:45:03.043Z,6.1
2018-02-14T13:50:02.574Z,6.1
2018-02-14T13:55:03.192Z,6.4
2018-02-14T14:00:02.691Z,6.0
2018-02-14T14:05:03.208Z,6.1
2018-02-14T14:10:02.741Z,6.1
2018-02-14T14:15:03.429Z,6.5
2018-02-14T14:20:02.978Z,6.6
2018-02-14T14:25:02.510Z,6.5
2018-02-14T14:30:03.066Z,6.4
2018-02-14T14:35:02.619Z,6.4
2018-02-14T14:40:03.124Z,6.0
2018-02-14T14:45:02.583Z,6.4
2018-02-14T14:50:03.074Z,5.9
2018-02-14T14:55:02.585Z,6.0
2018-02-14T15:00:03.114Z,6.0
2018-02-14T15:05:02.595Z,6.0
2018-02-14T15:10:03.107Z,5.8
2018-02-14T15:15:02.650Z,5.9
2018-02-14T15:20:03.219Z,5.9
2018-02-14T15:25:02.869Z,5.9
2018-02-14T15:30:02.394Z,6.0
2018-02-14T15:35:02.896Z,5.4
2018-02-14T15:40:02.590Z,5.8
2018-02-14T15:45:03.133Z,5.4
2018-02-14T15:50:02.711Z,5.0
2018-02-14T15:55:03.315Z,4.5
2018-02-14T16:00:02.864Z,4.3
2018-02-14T16:05:03.352Z,4.0
2018-02-14T16:10:02.775Z,4.0
2018-02-14T16:15:03.232Z,4.0
2018-02-14T16:20:02.769Z,3.7
2018-02-14T16:25:03.370Z,3.7
2018-02-14T16:30:02.826Z,3.7
2018-02-14T16:35:03.346Z,3.7
2018-02-14T16:40:02.890Z,3.7
2018-02-14T16:45:03.393Z,3.7
2018-02-14T16:50:02.864Z,3.5
2018-02-14T16:55:03.325Z,3.5
2018-02-14T17:00:02.694Z,3.5
2018-02-14T17:05:03.317Z,3.5
2018-02-14T17:10:02.750Z,3.2
2018-02-14T17:15:03.305Z,3.2
2018-02-14T17:20:02.840Z,3.0
2018-02-14T17:25:02.380Z,2.9
2018-02-14T17:30:02.839Z,2.2
2018-02-14T17:35:02.563Z,2.2
2018-02-14T17:40:03.106Z,2.2
2018-02-14T17:45:02.671Z,2.2
2018-02-14T17:50:03.273Z,2.2
2018-02-14T17:55:02.843Z,2.2
2018-02-14T18:00:03.359Z,1.8
2018-02-14T18:05:02.779Z,1.8
2018-02-14T18:10:03.243Z,1.7
2018-02-14T18:15:02.784Z,2.0
2018-02-14T18:20:03.308Z,2.0
2018-02-14T18:25:02.737Z,2.2
2018-02-14T18:30:03.220Z,2.2
2018-02-14T18:35:02.801Z,2.2
2018-02-14T18:40:02.434Z,2.2
2018-02-14T18:45:03.071Z,2.0
2018-02-14T18:50:02.681Z,2.0
2018-02-14T18:55:03.225Z,1.8
2018-02-14T19:00:02.719Z,2.0
2018-02-14T19:05:03.319Z,2.2
2018-02-14T19:10:02.833Z,2.4
2018-02-14T19:15:03.411Z,2.5
2018-02-14T19:20:02.951Z,2.5
2018-02-14T19:25:02.452Z,2.7
2018-02-14T19:30:02.982Z,2.7
2018-02-14T19:35:02.490Z,2.7
2018-02-14T19:40:03.034Z,2.7
2018-02-14T19:45:02.616Z,2.7
2018-02-14T19:50:03.096Z,2.7
2018-02-14T19:55:02.723Z,2.5
2018-02-14T20:00:03.244Z,2.7
2018-02-14T20:05:02.844Z,2.7
2018-02-14T20:10:02.465Z,2.7
2018-02-14T20:15:02.942Z,2.7
2018-02-14T20:20:02.465Z,2.7
2018-02-14T20:25:02.938Z,2.9
2018-02-14T20:30:02.408Z,2.9
2018-02-14T20:35:02.888Z,2.9
2018-02-14T20:40:02.485Z,2.9
2018-02-14T20:45:02.994Z,2.7
2018-02-14T20:50:02.570Z,2.9
2018-02-14T20:55:03.137Z,2.9
2018-02-14T21:00:02.585Z,3.0
2018-02-14T21:05:03.133Z,2.9
2018-02-14T21:10:02.759Z,3.0
2018-02-14T21:15:03.327Z,3.0
2018-02-14T21:20:02.891Z,3.0
2018-02-14T21:25:02.880Z,3.0
2018-02-14T21:30:03.327Z,2.9
2018-02-14T21:35:02.811Z,2.9
2018-02-14T21:40:02.412Z,2.9
2018-02-14T21:45:03.208Z,2.9
2018-02-14T21:50:02.704Z,2.9
2018-02-14T21:55:03.119Z,2.9
2018-02-14T22:00:02.947Z,2.9
2018-02-14T22:05:02.433Z,2.9
2018-02-14T22:10:02.926Z,2.9
2018-02-14T22:15:02.459Z,2.9
2018-02-14T22:20:02.994Z,2.9
2018-02-14T22:25:02.468Z,2.9
2018-02-14T22:30:03.275Z,2.9
2018-02-14T22:35:02.714Z,2.7
2018-02-14T22:40:03.246Z,2.7
2018-02-14T22:45:02.655Z,2.9
2018-02-14T22:50:03.080Z,2.9
2018-02-14T22:55:02.568Z,2.9
2018-02-14T23:00:03.023Z,2.9
2018-02-14T23:05:02.629Z,2.9
2018-02-14T23:10:03.243Z,2.9
2018-02-14T23:15:02.725Z,2.7
2018-02-14T23:20:03.227Z,2.9
2018-02-14T23:25:02.626Z,2.9
2018-02-14T23:30:03.038Z,2.9
2018-02-14T23:35:02.522Z,2.9
2018-02-14T23:40:03.070Z,2.9
2018-02-14T23:45:02.599Z,2.9
2018-02-14T23:50:03.074Z,2.9
2018-02-14T23:55:02.553Z,2.9
